Nyk Romulus — 9V7644 — position and weather

sailwx.info

Track history (hours):
 
Tides and Currents Weather Stations Pressure Air Temp Water Temp Dewpoint Dewpoint Depression Visibility Wind Speed Wind Dir Waves Ship Positions

Nyk Romulus

Last reported at 2018-Apr-19 07:54 UTC. Time now 2018-Apr-21 21:22 UTC.
Position N 38°55' W 074°04'.

Length 294 m; draft 9.8 m.

Type: Cargo ship. MMSI: 563079000.

Date/timePositionNaut miles runAvg speedWind from/ knotsBaromVisibWave heightAir tempDewpointWater temp
2018-Apr-19 07:54N 38°55' W 074°04'717.4
2018-Apr-19 07:30N 39°02' W 074°02'917.4
2018-Apr-19 06:58N 39°11' W 073°60'917.3
2018-Apr-19 06:28N 39°20' W 073°57'917.1
2018-Apr-19 05:58N 39°28' W 073°55'817.2
2018-Apr-19 05:31N 39°36' W 073°54'917.0
2018-Apr-19 05:00N 39°44' W 073°52'917.3
2018-Apr-19 04:30N 39°53' W 073°52'917.2
2018-Apr-19 04:00N 40°02' W 073°51'815.5
2018-Apr-19 03:28N 40°10' W 073°50'5 9.9
2018-Apr-19 02:57N 40°15' W 073°50'5 9.8
2018-Apr-19 02:25N 40°20' W 073°49'4 9.8
2018-Apr-19 02:00N 40°24' W 073°49'4 8.3
2018-Apr-19 01:30N 40°28' W 073°52'510.1
2018-Apr-19 01:00N 40°30' W 073°58'611.6
2018-Apr-19 00:30N 40°35' W 074°02'5 9.5
2018-Apr-19 00:00N 40°39' W 074°06'3 5.1
2018-Apr-18 23:30N 40°39' W 074°09'2 3.2
2018-Apr-18 22:58N 40°41' W 074°08'0 0.0
2018-Apr-18 22:28N 40°41' W 074°08'0 0.0
2018-Apr-18 21:58N 40°41' W 074°08'0 0.0
2018-Apr-18 21:28N 40°41' W 074°08'0 0.0
2018-Apr-18 20:58N 40°41' W 074°08'0 0.0
2018-Apr-18 20:28N 40°41' W 074°08'0 0.0
2018-Apr-18 19:58N 40°41' W 074°08'0 0.0
2018-Apr-18 19:28N 40°41' W 074°08'0 0.0
2018-Apr-18 18:58N 40°41' W 074°08'0 0.0
2018-Apr-18 18:28N 40°41' W 074°08'0 0.0
2018-Apr-18 17:58N 40°41' W 074°08'0 0.0
2018-Apr-18 17:28N 40°41' W 074°08'0 0.0
2018-Apr-18 16:58N 40°41' W 074°08'0 0.0
2018-Apr-18 16:28N 40°41' W 074°08'0 0.0
2018-Apr-18 15:58N 40°41' W 074°08'0 0.0
2018-Apr-18 15:28N 40°41' W 074°08'0 0.0
2018-Apr-18 14:58N 40°41' W 074°08'0 0.0
2018-Apr-18 14:28N 40°41' W 074°08'0 0.0
2018-Apr-18 13:58N 40°41' W 074°08'0 0.0
2018-Apr-18 13:28N 40°41' W 074°08'0 0.0
2018-Apr-18 12:55N 40°41' W 074°08'0 0.0
2018-Apr-18 12:28N 40°41' W 074°08'0 0.0
2018-Apr-18 11:58N 40°41' W 074°08'0 0.0
2018-Apr-18 11:28N 40°41' W 074°09'0 0.0
2018-Apr-18 10:58N 40°41' W 074°08'0 0.0
2018-Apr-18 10:28N 40°41' W 074°08'0 0.0
2018-Apr-18 10:00N 40°41' W 074°08'0 0.0
2018-Apr-18 09:30N 40°41' W 074°08'0 0.0
2018-Apr-18 08:57N 40°41' W 074°08'0 0.0
2018-Apr-18 08:30N 40°41' W 074°08'0 0.0
2018-Apr-18 07:58N 40°41' W 074°08'0 0.0
2018-Apr-18 07:28N 40°41' W 074°08'0 0.0
2018-Apr-18 06:58N 40°41' W 074°08'0 0.0
2018-Apr-18 06:28N 40°41' W 074°08'0 0.0
2018-Apr-18 05:58N 40°41' W 074°08'0 0.0
2018-Apr-18 05:28N 40°41' W 074°08'0 0.0
2018-Apr-18 04:58N 40°41' W 074°08'0 0.0
2018-Apr-18 04:28N 40°41' W 074°08'0 0.0
2018-Apr-18 03:58N 40°41' W 074°08'0 0.0
2018-Apr-18 03:28N 40°41' W 074°08'0 0.0
2018-Apr-18 02:58N 40°41' W 074°08'0 0.0
2018-Apr-18 02:28N 40°41' W 074°08'0 0.0
2018-Apr-18 01:58N 40°41' W 074°08'0 0.0
2018-Apr-18 01:28N 40°41' W 074°08'0 0.0
2018-Apr-18 00:58N 40°41' W 074°08'0 0.0
2018-Apr-18 00:28N 40°41' W 074°08'0 0.0
2018-Apr-17 23:58N 40°41' W 074°08'0 0.0
2018-Apr-17 23:28N 40°41' W 074°08'0 0.0
2018-Apr-17 22:58N 40°41' W 074°08'0 0.0
2018-Apr-17 22:28N 40°41' W 074°08'0 0.0
2018-Apr-17 21:55N 40°41' W 074°08'0 0.0
2018-Apr-17 21:30N 40°41' W 074°08'0 0.7
2018-Apr-17 21:00N 40°40' W 074°08'2 3.4
2018-Apr-17 20:30N 40°39' W 074°08'3 6.6
2018-Apr-17 20:00N 40°39' W 074°04'5 9.1
2018-Apr-17 19:30N 40°34' W 074°02'5 9.0
2018-Apr-17 19:00N 40°31' W 073°58'5 9.1
2018-Apr-17 18:30N 40°29' W 073°53'4 8.5
2018-Apr-17 18:00N 40°28' W 073°48'4 7.7
2018-Apr-17 17:30N 40°25' W 073°44'  
2018-Apr-14 12:00N 47°06' W 044°54'   180 / 271010.6 1.1 3.0 3.0 7.0
2018-Apr-10 16:45N 49°56' W 004°15'1319.3
2018-Apr-10 16:04N 50°02' W 003°56'219.0
2018-Apr-10 15:57N 50°03' W 003°53'819.1
2018-Apr-10 15:30N 50°07' W 003°42'918.4
2018-Apr-10 15:00N 50°12' W 003°30'918.1
2018-Apr-10 14:31N 50°21' W 003°27'5 9.6
2018-Apr-10 14:00N 50°25' W 003°24'714.4
2018-Apr-10 13:31N 50°26' W 003°13'1019.4
2018-Apr-10 13:00N 50°26' W 002°57'1019.7
2018-Apr-10 12:30N 50°25' W 002°42'1020.0
2018-Apr-10 12:00N 50°25' W 002°26'1320.2
2018-Apr-10 11:23N 50°25' W 002°07'920.4
2018-Apr-10 10:58N 50°25' W 001°53'1020.7
2018-Apr-10 10:30N 50°25' W 001°38'1020.9
2018-Apr-10 10:00N 50°25' W 001°22'1121.1
2018-Apr-10 09:28N 50°25' W 001°04'1120.9
2018-Apr-10 08:57N 50°26' W 000°47'1320.5
2018-Apr-10 08:17N 50°28' W 000°26'620.1
2018-Apr-10 07:59N 50°28' W 000°17'1019.9
2018-Apr-10 07:31N 50°30' W 000°02'1019.7
2018-Apr-10 07:01N 50°33' E 000°13'1019.4
2018-Apr-10 06:30N 50°36' E 000°28'1019.1
2018-Apr-10 06:01N 50°39' E 000°41'1019.0
2018-Apr-10 05:30N 50°44' E 000°54'918.9
2018-Apr-10 05:01N 50°50' E 001°06'2319.0
2018-Apr-10 03:49N 51°06' E 001°32'619.8
2018-Apr-10 03:31N 51°11' E 001°37'1019.4
2018-Apr-10 03:01N 51°17' E 001°48'1020.0
2018-Apr-10 02:30N 51°26' E 001°56'1020.0
2018-Apr-10 02:01N 51°34' E 002°06'1019.8
2018-Apr-10 01:30N 51°42' E 002°15'1019.9
2018-Apr-10 01:00N 51°49' E 002°27'7518.9
2018-Apr-09 21:02N 52°48' E 003°44'119.2
2018-Apr-09 21:00N 52°48' E 003°44'919.1
2018-Apr-09 20:30N 52°56' E 003°54'1019.4
2018-Apr-09 20:01N 53°02' E 004°06'1020.0
2018-Apr-09 19:30N 53°09' E 004°19'1019.9
2018-Apr-09 19:00N 53°17' E 004°29'1020.4
2018-Apr-09 18:30N 53°26' E 004°36'1020.2
2018-Apr-09 18:01N 53°31' E 004°51'1020.5
2018-Apr-09 17:30N 53°35' E 005°06'1020.1
2018-Apr-09 17:00N 53°39' E 005°22'8218.8
2018-Apr-09 12:38N 53°59' E 007°37'816.9
2018-Apr-09 12:11N 53°53' E 007°45'314.1
2018-Apr-09 11:58N 53°52' E 007°50'510.5
2018-Apr-09 11:30N 53°51' E 007°58'714.4
2018-Apr-09 11:00N 53°48' E 008°09'815.5
2018-Apr-09 10:30N 53°43' E 008°19'815.8
2018-Apr-09 10:00N 53°37' E 008°29'3 6.0
2018-Apr-09 09:30N 53°35' E 008°32'0 0.0
2018-Apr-09 09:00N 53°35' E 008°32'0 0.0
2018-Apr-09 08:30N 53°35' E 008°32'0 0.0
2018-Apr-09 08:00N 53°35' E 008°32'  
Track history (hours):
 
Tides and Currents Weather Stations Pressure Air Temp Water Temp Dewpoint Dewpoint Depression Visibility Wind Speed Wind Dir Waves Ship Positions

Nyk Romulus

Last reported at 2018-Apr-19 07:54 UTC. Time now 2018-Apr-21 21:22 UTC.
Position N 38°55' W 074°04'.

Length 294 m; draft 9.8 m.

Type: Cargo ship. MMSI: 563079000.

Date/timePositionNaut miles runAvg speedWind from/ knotsBaromVisibWave heightAir tempDewpointWater temp
2018-Apr-19 07:54N 38°55' W 074°04'717.4
2018-Apr-19 07:30N 39°02' W 074°02'917.4
2018-Apr-19 06:58N 39°11' W 073°60'917.3
2018-Apr-19 06:28N 39°20' W 073°57'917.1
2018-Apr-19 05:58N 39°28' W 073°55'817.2
2018-Apr-19 05:31N 39°36' W 073°54'917.0
2018-Apr-19 05:00N 39°44' W 073°52'917.3
2018-Apr-19 04:30N 39°53' W 073°52'917.2
2018-Apr-19 04:00N 40°02' W 073°51'815.5
2018-Apr-19 03:28N 40°10' W 073°50'5 9.9
2018-Apr-19 02:57N 40°15' W 073°50'5 9.8
2018-Apr-19 02:25N 40°20' W 073°49'4 9.8
2018-Apr-19 02:00N 40°24' W 073°49'4 8.3
2018-Apr-19 01:30N 40°28' W 073°52'510.1
2018-Apr-19 01:00N 40°30' W 073°58'611.6
2018-Apr-19 00:30N 40°35' W 074°02'5 9.5
2018-Apr-19 00:00N 40°39' W 074°06'3 5.1
2018-Apr-18 23:30N 40°39' W 074°09'2 3.2
2018-Apr-18 22:58N 40°41' W 074°08'0 0.0
2018-Apr-18 22:28N 40°41' W 074°08'0 0.0
2018-Apr-18 21:58N 40°41' W 074°08'0 0.0
2018-Apr-18 21:28N 40°41' W 074°08'0 0.0
2018-Apr-18 20:58N 40°41' W 074°08'0 0.0
2018-Apr-18 20:28N 40°41' W 074°08'0 0.0
2018-Apr-18 19:58N 40°41' W 074°08'0 0.0
2018-Apr-18 19:28N 40°41' W 074°08'0 0.0
2018-Apr-18 18:58N 40°41' W 074°08'0 0.0
2018-Apr-18 18:28N 40°41' W 074°08'0 0.0
2018-Apr-18 17:58N 40°41' W 074°08'0 0.0
2018-Apr-18 17:28N 40°41' W 074°08'0 0.0
2018-Apr-18 16:58N 40°41' W 074°08'0 0.0
2018-Apr-18 16:28N 40°41' W 074°08'0 0.0
2018-Apr-18 15:58N 40°41' W 074°08'0 0.0
2018-Apr-18 15:28N 40°41' W 074°08'0 0.0
2018-Apr-18 14:58N 40°41' W 074°08'0 0.0
2018-Apr-18 14:28N 40°41' W 074°08'0 0.0
2018-Apr-18 13:58N 40°41' W 074°08'0 0.0
2018-Apr-18 13:28N 40°41' W 074°08'0 0.0
2018-Apr-18 12:55N 40°41' W 074°08'0 0.0
2018-Apr-18 12:28N 40°41' W 074°08'0 0.0
2018-Apr-18 11:58N 40°41' W 074°08'0 0.0
2018-Apr-18 11:28N 40°41' W 074°09'0 0.0
2018-Apr-18 10:58N 40°41' W 074°08'0 0.0
2018-Apr-18 10:28N 40°41' W 074°08'0 0.0
2018-Apr-18 10:00N 40°41' W 074°08'0 0.0
2018-Apr-18 09:30N 40°41' W 074°08'0 0.0
2018-Apr-18 08:57N 40°41' W 074°08'0 0.0
2018-Apr-18 08:30N 40°41' W 074°08'0 0.0
2018-Apr-18 07:58N 40°41' W 074°08'0 0.0
2018-Apr-18 07:28N 40°41' W 074°08'0 0.0
2018-Apr-18 06:58N 40°41' W 074°08'0 0.0
2018-Apr-18 06:28N 40°41' W 074°08'0 0.0
2018-Apr-18 05:58N 40°41' W 074°08'0 0.0
2018-Apr-18 05:28N 40°41' W 074°08'0 0.0
2018-Apr-18 04:58N 40°41' W 074°08'0 0.0
2018-Apr-18 04:28N 40°41' W 074°08'0 0.0
2018-Apr-18 03:58N 40°41' W 074°08'0 0.0
2018-Apr-18 03:28N 40°41' W 074°08'0 0.0
2018-Apr-18 02:58N 40°41' W 074°08'0 0.0
2018-Apr-18 02:28N 40°41' W 074°08'0 0.0
2018-Apr-18 01:58N 40°41' W 074°08'0 0.0
2018-Apr-18 01:28N 40°41' W 074°08'0 0.0
2018-Apr-18 00:58N 40°41' W 074°08'0 0.0
2018-Apr-18 00:28N 40°41' W 074°08'0 0.0
2018-Apr-17 23:58N 40°41' W 074°08'0 0.0
2018-Apr-17 23:28N 40°41' W 074°08'0 0.0
2018-Apr-17 22:58N 40°41' W 074°08'0 0.0
2018-Apr-17 22:28N 40°41' W 074°08'0 0.0
2018-Apr-17 21:55N 40°41' W 074°08'0 0.0
2018-Apr-17 21:30N 40°41' W 074°08'0 0.7
2018-Apr-17 21:00N 40°40' W 074°08'2 3.4
2018-Apr-17 20:30N 40°39' W 074°08'3 6.6
2018-Apr-17 20:00N 40°39' W 074°04'5 9.1
2018-Apr-17 19:30N 40°34' W 074°02'5 9.0
2018-Apr-17 19:00N 40°31' W 073°58'5 9.1
2018-Apr-17 18:30N 40°29' W 073°53'4 8.5
2018-Apr-17 18:00N 40°28' W 073°48'4 7.7
2018-Apr-17 17:30N 40°25' W 073°44'  
2018-Apr-14 12:00N 47°06' W 044°54'   180 / 271010.6 1.1 3.0 3.0 7.0
2018-Apr-10 16:45N 49°56' W 004°15'1319.3
2018-Apr-10 16:04N 50°02' W 003°56'219.0
2018-Apr-10 15:57N 50°03' W 003°53'819.1
2018-Apr-10 15:30N 50°07' W 003°42'918.4
2018-Apr-10 15:00N 50°12' W 003°30'918.1
2018-Apr-10 14:31N 50°21' W 003°27'5 9.6
2018-Apr-10 14:00N 50°25' W 003°24'714.4
2018-Apr-10 13:31N 50°26' W 003°13'1019.4
2018-Apr-10 13:00N 50°26' W 002°57'1019.7
2018-Apr-10 12:30N 50°25' W 002°42'1020.0
2018-Apr-10 12:00N 50°25' W 002°26'1320.2
2018-Apr-10 11:23N 50°25' W 002°07'920.4
2018-Apr-10 10:58N 50°25' W 001°53'1020.7
2018-Apr-10 10:30N 50°25' W 001°38'1020.9
2018-Apr-10 10:00N 50°25' W 001°22'1121.1
2018-Apr-10 09:28N 50°25' W 001°04'1120.9
2018-Apr-10 08:57N 50°26' W 000°47'1320.5
2018-Apr-10 08:17N 50°28' W 000°26'620.1
2018-Apr-10 07:59N 50°28' W 000°17'1019.9
2018-Apr-10 07:31N 50°30' W 000°02'1019.7
2018-Apr-10 07:01N 50°33' E 000°13'1019.4
2018-Apr-10 06:30N 50°36' E 000°28'1019.1
2018-Apr-10 06:01N 50°39' E 000°41'1019.0
2018-Apr-10 05:30N 50°44' E 000°54'918.9
2018-Apr-10 05:01N 50°50' E 001°06'2319.0
2018-Apr-10 03:49N 51°06' E 001°32'619.8
2018-Apr-10 03:31N 51°11' E 001°37'1019.4
2018-Apr-10 03:01N 51°17' E 001°48'1020.0
2018-Apr-10 02:30N 51°26' E 001°56'1020.0
2018-Apr-10 02:01N 51°34' E 002°06'1019.8
2018-Apr-10 01:30N 51°42' E 002°15'1019.9
2018-Apr-10 01:00N 51°49' E 002°27'7518.9
2018-Apr-09 21:02N 52°48' E 003°44'119.2
2018-Apr-09 21:00N 52°48' E 003°44'919.1
2018-Apr-09 20:30N 52°56' E 003°54'1019.4
2018-Apr-09 20:01N 53°02' E 004°06'1020.0
2018-Apr-09 19:30N 53°09' E 004°19'1019.9
2018-Apr-09 19:00N 53°17' E 004°29'1020.4
2018-Apr-09 18:30N 53°26' E 004°36'1020.2
2018-Apr-09 18:01N 53°31' E 004°51'1020.5
2018-Apr-09 17:30N 53°35' E 005°06'1020.1
2018-Apr-09 17:00N 53°39' E 005°22'8218.8
2018-Apr-09 12:38N 53°59' E 007°37'816.9
2018-Apr-09 12:11N 53°53' E 007°45'314.1
2018-Apr-09 11:58N 53°52' E 007°50'510.5
2018-Apr-09 11:30N 53°51' E 007°58'714.4
2018-Apr-09 11:00N 53°48' E 008°09'815.5
2018-Apr-09 10:30N 53°43' E 008°19'815.8
2018-Apr-09 10:00N 53°37' E 008°29'3 6.0
2018-Apr-09 09:30N 53°35' E 008°32'0 0.0
2018-Apr-09 09:00N 53°35' E 008°32'0 0.0
2018-Apr-09 08:30N 53°35' E 008°32'0 0.0
2018-Apr-09 08:00N 53°35' E 008°32'  

Dump ship's entire track history